sensor_id;sensor_type;location;lat;lon;timestamp;pressure;altitude;pressure_sealevel;temperature;humidity
8318;BME280;4196;48.926;8.964;2023-03-18T00:01:31;98572.16;;;6.67;100.00
8318;BME280;4196;48.926;8.964;2023-03-18T00:04:18;98577.25;;;6.61;100.00
8318;BME280;4196;48.926;8.964;2023-03-18T00:07:05;98595.34;;;6.74;100.00
8318;BME280;4196;48.926;8.964;2023-03-18T00:09:52;98604.75;;;6.71;100.00
8318;BME280;4196;48.926;8.964;2023-03-18T00:12:39;98600.44;;;6.67;100.00
8318;BME280;4196;48.926;8.964;2023-03-18T00:15:26;98602.97;;;6.61;100.00
8318;BME280;4196;48.926;8.964;2023-03-18T00:18:13;98571.09;;;6.34;100.00
8318;BME280;4196;48.926;8.964;2023-03-18T00:21:01;98607.25;;;6.62;100.00
8318;BME280;4196;48.926;8.964;2023-03-18T00:23:49;98558.25;;;6.34;100.00
8318;BME280;4196;48.926;8.964;2023-03-18T00:26:39;98589.13;;;6.40;100.00
8318;BME280;4196;48.926;8.964;2023-03-18T00:29:25;98610.66;;;6.53;100.00
8318;BME280;4196;48.926;8.964;2023-03-18T00:32:12;98612.31;;;6.42;100.00
8318;BME280;4196;48.926;8.964;2023-03-18T00:34:58;98606.22;;;6.32;100.00
8318;BME280;4196;48.926;8.964;2023-03-18T00:37:46;98604.56;;;6.37;100.00
8318;BME280;4196;48.926;8.964;2023-03-18T00:40:34;98632.03;;;6.47;100.00
8318;BME280;4196;48.926;8.964;2023-03-18T00:43:40;98593.25;;;6.17;100.00
8318;BME280;4196;48.926;8.964;2023-03-18T00:46:33;98630.25;;;6.34;100.00
8318;BME280;4196;48.926;8.964;2023-03-18T00:49:20;98640.53;;;6.34;100.00
8318;BME280;4196;48.926;8.964;2023-03-18T00:52:06;98602.66;;;6.12;100.00
8318;BME280;4196;48.926;8.964;2023-03-18T00:54:53;98625.88;;;6.22;100.00
8318;BME280;4196;48.926;8.964;2023-03-18T00:57:40;98629.31;;;6.24;100.00
8318;BME280;4196;48.926;8.964;2023-03-18T01:00:27;98607.81;;;6.12;100.00
8318;BME280;4196;48.926;8.964;2023-03-18T01:03:15;98561.34;;;5.90;100.00
8318;BME280;4196;48.926;8.964;2023-03-18T01:06:02;98595.78;;;6.11;100.00
8318;BME280;4196;48.926;8.964;2023-03-18T01:08:49;98631.06;;;6.27;100.00
8318;BME280;4196;48.926;8.964;2023-03-18T01:11:36;98634.47;;;6.26;100.00
8318;BME280;4196;48.926;8.964;2023-03-18T01:14:23;98636.16;;;6.25;100.00
8318;BME280;4196;48.926;8.964;2023-03-18T01:17:10;98627.59;;;6.25;100.00
8318;BME280;4196;48.926;8.964;2023-03-18T01:19:56;98631.91;;;6.29;100.00
8318;BME280;4196;48.926;8.964;2023-03-18T01:22:43;98598.47;;;6.23;100.00
8318;BME280;4196;48.926;8.964;2023-03-18T01:25:30;98626.94;;;6.52;100.00
8318;BME280;4196;48.926;8.964;2023-03-18T01:28:17;98601.81;;;6.17;100.00
8318;BME280;4196;48.926;8.964;2023-03-18T01:31:03;98614.81;;;6.36;100.00
8318;BME280;4196;48.926;8.964;2023-03-18T01:33:51;98602.03;;;6.45;100.00
8318;BME280;4196;48.926;8.964;2023-03-18T01:36:37;98605.38;;;6.32;100.00
8318;BME280;4196;48.926;8.964;2023-03-18T01:39:27;98633.66;;;6.33;100.00
8318;BME280;4196;48.926;8.964;2023-03-18T01:42:14;98634.50;;;6.32;100.00
8318;BME280;4196;48.926;8.964;2023-03-18T01:45:22;98637.03;;;6.23;100.00
8318;BME280;4196;48.926;8.964;2023-03-18T01:48:14;98642.06;;;6.14;100.00
8318;BME280;4196;48.926;8.964;2023-03-18T01:51:05;98642.19;;;6.26;100.00
8318;BME280;4196;48.926;8.964;2023-03-18T01:53:55;98635.28;;;6.20;100.00
8318;BME280;4196;48.926;8.964;2023-03-18T01:56:45;98634.31;;;6.11;100.00
8318;BME280;4196;48.926;8.964;2023-03-18T01:59:35;98608.50;;;5.95;100.00
8318;BME280;4196;48.926;8.964;2023-03-18T02:02:24;98607.66;;;5.96;100.00
8318;BME280;4196;48.926;8.964;2023-03-18T02:05:15;98642.94;;;6.14;100.00
8318;BME280;4196;48.926;8.964;2023-03-18T02:08:02;98633.41;;;6.02;100.00
8318;BME280;4196;48.926;8.964;2023-03-18T02:10:49;98637.69;;;6.00;100.00
8318;BME280;4196;48.926;8.964;2023-03-18T02:13:41;98629.91;;;5.94;100.00
8318;BME280;4196;48.926;8.964;2023-03-18T02:16:36;98636.72;;;5.91;100.00
8318;BME280;4196;48.926;8.964;2023-03-18T02:25:54;98635.13;;;6.03;100.00
8318;BME280;4196;48.926;8.964;2023-03-18T02:28:44;98619.47;;;5.79;100.00
8318;BME280;4196;48.926;8.964;2023-03-18T02:31:35;98617.78;;;5.84;100.00
8318;BME280;4196;48.926;8.964;2023-03-18T02:34:25;98609.91;;;5.64;100.00
8318;BME280;4196;48.926;8.964;2023-03-18T02:37:14;98605.53;;;5.52;100.00
8318;BME280;4196;48.926;8.964;2023-03-18T02:40:32;98640.06;;;5.85;100.00
8318;BME280;4196;48.926;8.964;2023-03-18T02:43:29;98646.00;;;5.78;100.00
8318;BME280;4196;48.926;8.964;2023-03-18T02:49:19;98613.19;;;5.49;100.00
8318;BME280;4196;48.926;8.964;2023-03-18T02:52:07;98639.88;;;5.67;100.00
8318;BME280;4196;48.926;8.964;2023-03-18T02:54:54;98620.69;;;5.31;100.00
8318;BME280;4196;48.926;8.964;2023-03-18T02:57:45;98649.97;;;5.48;100.00
8318;BME280;4196;48.926;8.964;2023-03-18T03:00:32;98638.13;;;5.63;100.00
8318;BME280;4196;48.926;8.964;2023-03-18T03:03:20;98626.66;;;5.30;100.00
8318;BME280;4196;48.926;8.964;2023-03-18T03:06:07;98593.94;;;5.09;100.00
8318;BME280;4196;48.926;8.964;2023-03-18T03:08:54;98622.31;;;5.26;100.00
8318;BME280;4196;48.926;8.964;2023-03-18T03:11:44;98661.00;;;5.38;100.00
8318;BME280;4196;48.926;8.964;2023-03-18T03:14:36;98650.47;;;5.17;100.00
8318;BME280;4196;48.926;8.964;2023-03-18T03:17:22;98654.75;;;5.18;100.00
8318;BME280;4196;48.926;8.964;2023-03-18T03:20:10;98646.38;;;5.31;100.00
8318;BME280;4196;48.926;8.964;2023-03-18T03:22:57;98646.97;;;5.10;100.00
8318;BME280;4196;48.926;8.964;2023-03-18T03:25:44;98647.63;;;4.95;100.00
8318;BME280;4196;48.926;8.964;2023-03-18T03:28:30;98676.81;;;5.03;100.00
8318;BME280;4196;48.926;8.964;2023-03-18T03:31:18;98661.41;;;5.03;100.00
8318;BME280;4196;48.926;8.964;2023-03-18T03:34:04;98675.13;;;5.05;100.00
8318;BME280;4196;48.926;8.964;2023-03-18T03:36:50;98643.97;;;4.78;100.00
8318;BME280;4196;48.926;8.964;2023-03-18T03:39:37;98643.84;;;4.69;100.00
8318;BME280;4196;48.926;8.964;2023-03-18T03:42:24;98679.16;;;4.87;100.00
8318;BME280;4196;48.926;8.964;2023-03-18T03:45:11;98644.72;;;4.71;100.00
8318;BME280;4196;48.926;8.964;2023-03-18T03:48:00;98635.34;;;4.73;100.00
8318;BME280;4196;48.926;8.964;2023-03-18T03:50:49;98654.88;;;4.63;100.00
8318;BME280;4196;48.926;8.964;2023-03-18T03:53:36;98677.25;;;4.73;100.00
8318;BME280;4196;48.926;8.964;2023-03-18T03:56:22;98654.72;;;4.52;100.00
8318;BME280;4196;48.926;8.964;2023-03-18T03:59:09;98643.44;;;4.40;100.00
8318;BME280;4196;48.926;8.964;2023-03-18T04:02:19;98652.78;;;4.38;100.00
8318;BME280;4196;48.926;8.964;2023-03-18T04:05:10;98678.53;;;4.45;100.00
8318;BME280;4196;48.926;8.964;2023-03-18T04:07:58;98643.16;;;4.23;100.00
8318;BME280;4196;48.926;8.964;2023-03-18T04:10:54;98649.97;;;4.21;100.00
8318;BME280;4196;48.926;8.964;2023-03-18T04:13:40;98679.19;;;4.32;100.00
8318;BME280;4196;48.926;8.964;2023-03-18T04:16:27;98670.66;;;4.31;100.00
8318;BME280;4196;48.926;8.964;2023-03-18T04:19:13;98659.38;;;4.20;100.00
8318;BME280;4196;48.926;8.964;2023-03-18T04:22:00;98629.00;;;3.93;100.00
8318;BME280;4196;48.926;8.964;2023-03-18T04:24:48;98685.16;;;4.31;100.00
8318;BME280;4196;48.926;8.964;2023-03-18T04:27:34;98659.91;;;4.02;100.00
8318;BME280;4196;48.926;8.964;2023-03-18T04:30:25;98667.53;;;3.99;100.00
8318;BME280;4196;48.926;8.964;2023-03-18T04:33:17;98672.66;;;3.99;100.00
8318;BME280;4196;48.926;8.964;2023-03-18T04:36:04;98676.88;;;3.97;100.00
8318;BME280;4196;48.926;8.964;2023-03-18T04:38:52;98661.34;;;3.86;100.00
8318;BME280;4196;48.926;8.964;2023-03-18T04:41:38;98693.16;;;3.98;100.00
8318;BME280;4196;48.926;8.964;2023-03-18T04:44:25;98635.25;;;3.60;100.00
8318;BME280;4196;48.926;8.964;2023-03-18T04:47:13;98693.75;;;3.86;100.00
8318;BME280;4196;48.926;8.964;2023-03-18T04:50:00;98681.59;;;3.74;100.00
8318;BME280;4196;48.926;8.964;2023-03-18T04:52:47;98674.63;;;3.66;100.00
8318;BME280;4196;48.926;8.964;2023-03-18T04:55:36;98689.34;;;3.77;100.00
8318;BME280;4196;48.926;8.964;2023-03-18T04:58:25;98677.72;;;3.49;100.00
8318;BME280;4196;48.926;8.964;2023-03-18T05:01:35;98664.91;;;3.49;100.00
8318;BME280;4196;48.926;8.964;2023-03-18T05:04:21;98679.47;;;3.50;100.00
8318;BME280;4196;48.926;8.964;2023-03-18T05:07:13;98701.94;;;3.65;100.00
8318;BME280;4196;48.926;8.964;2023-03-18T05:10:07;98689.38;;;3.35;100.00
8318;BME280;4196;48.926;8.964;2023-03-18T05:12:54;98680.75;;;3.28;100.00
8318;BME280;4196;48.926;8.964;2023-03-18T05:15:47;98696.09;;;3.30;100.00
8318;BME280;4196;48.926;8.964;2023-03-18T05:18:35;98696.88;;;3.24;100.00
8318;BME280;4196;48.926;8.964;2023-03-18T05:21:24;98693.25;;;3.14;100.00
8318;BME280;4196;48.926;8.964;2023-03-18T05:24:10;98699.13;;;3.10;100.00
8318;BME280;4196;48.926;8.964;2023-03-18T05:27:00;98693.00;;;3.02;100.00
8318;BME280;4196;48.926;8.964;2023-03-18T05:29:53;98686.78;;;2.91;100.00
8318;BME280;4196;48.926;8.964;2023-03-18T05:32:46;98697.03;;;2.93;100.00
8318;BME280;4196;48.926;8.964;2023-03-18T05:35:34;98705.56;;;2.93;100.00
8318;BME280;4196;48.926;8.964;2023-03-18T05:38:22;98702.94;;;2.90;100.00
8318;BME280;4196;48.926;8.964;2023-03-18T05:41:09;98681.44;;;2.82;100.00
8318;BME280;4196;48.926;8.964;2023-03-18T05:43:59;98679.53;;;2.72;100.00
8318;BME280;4196;48.926;8.964;2023-03-18T05:46:48;98696.88;;;2.85;100.00
8318;BME280;4196;48.926;8.964;2023-03-18T05:49:52;98695.94;;;2.81;100.00
8318;BME280;4196;48.926;8.964;2023-03-18T05:52:42;98710.69;;;2.93;100.00
8318;BME280;4196;48.926;8.964;2023-03-18T05:55:37;98687.41;;;2.81;100.00
8318;BME280;4196;48.926;8.964;2023-03-18T05:58:23;98690.03;;;2.84;100.00
8318;BME280;4196;48.926;8.964;2023-03-18T06:01:16;98713.41;;;3.01;100.00
8318;BME280;4196;48.926;8.964;2023-03-18T06:04:05;98661.56;;;2.69;100.00
8318;BME280;4196;48.926;8.964;2023-03-18T06:06:52;98691.00;;;2.89;100.00
8318;BME280;4196;48.926;8.964;2023-03-18T06:09:38;98704.88;;;3.00;100.00
8318;BME280;4196;48.926;8.964;2023-03-18T06:12:25;98687.66;;;2.92;100.00
8318;BME280;4196;48.926;8.964;2023-03-18T06:15:13;98701.53;;;3.04;100.00
8318;BME280;4196;48.926;8.964;2023-03-18T06:17:59;98730.16;;;3.26;100.00
8318;BME280;4196;48.926;8.964;2023-03-18T06:20:47;98695.03;;;3.19;100.00
8318;BME280;4196;48.926;8.964;2023-03-18T06:23:34;98727.03;;;3.39;100.00
8318;BME280;4196;48.926;8.964;2023-03-18T06:26:21;98691.19;;;3.39;100.00
8318;BME280;4196;48.926;8.964;2023-03-18T06:29:08;98731.69;;;3.60;100.00
8318;BME280;4196;48.926;8.964;2023-03-18T06:31:57;98708.78;;;3.68;100.00
8318;BME280;4196;48.926;8.964;2023-03-18T06:34:45;98729.69;;;3.89;100.00
8318;BME280;4196;48.926;8.964;2023-03-18T06:37:32;98701.16;;;3.71;100.00
8318;BME280;4196;48.926;8.964;2023-03-18T06:40:19;98723.00;;;3.97;100.00
8318;BME280;4196;48.926;8.964;2023-03-18T06:43:07;98726.91;;;4.24;100.00
8318;BME280;4196;48.926;8.964;2023-03-18T06:45:56;98727.22;;;4.42;100.00
8318;BME280;4196;48.926;8.964;2023-03-18T06:48:43;98724.88;;;4.57;100.00
8318;BME280;4196;48.926;8.964;2023-03-18T06:51:34;98691.41;;;4.48;100.00
8318;BME280;4196;48.926;8.964;2023-03-18T06:54:21;98718.47;;;4.85;100.00
8318;BME280;4196;48.926;8.964;2023-03-18T06:57:09;98743.72;;;5.19;100.00
8318;BME280;4196;48.926;8.964;2023-03-18T06:59:55;98744.00;;;5.39;100.00
8318;BME280;4196;48.926;8.964;2023-03-18T07:02:42;98704.50;;;5.29;100.00
8318;BME280;4196;48.926;8.964;2023-03-18T07:05:31;98737.38;;;5.56;100.00
8318;BME280;4196;48.926;8.964;2023-03-18T07:08:18;98732.22;;;5.53;100.00
8318;BME280;4196;48.926;8.964;2023-03-18T07:11:05;98728.66;;;5.43;100.00
8318;BME280;4196;48.926;8.964;2023-03-18T07:13:58;98746.78;;;5.54;100.00
8318;BME280;4196;48.926;8.964;2023-03-18T07:16:51;98728.56;;;5.37;100.00
8318;BME280;4196;48.926;8.964;2023-03-18T07:19:37;98747.75;;;5.67;100.00
8318;BME280;4196;48.926;8.964;2023-03-18T07:22:24;98751.31;;;5.76;100.00
8318;BME280;4196;48.926;8.964;2023-03-18T07:25:10;98744.69;;;5.95;100.00
8318;BME280;4196;48.926;8.964;2023-03-18T07:27:58;98732.19;;;6.29;100.00
8318;BME280;4196;48.926;8.964;2023-03-18T07:30:48;98750.34;;;6.47;100.00
8318;BME280;4196;48.926;8.964;2023-03-18T07:33:39;98722.78;;;6.31;100.00
8318;BME280;4196;48.926;8.964;2023-03-18T07:36:25;98734.19;;;6.65;100.00
8318;BME280;4196;48.926;8.964;2023-03-18T07:39:13;98753.38;;;7.04;100.00
8318;BME280;4196;48.926;8.964;2023-03-18T07:41:59;98739.63;;;7.05;100.00
8318;BME280;4196;48.926;8.964;2023-03-18T07:44:48;98745.69;;;7.12;100.00
8318;BME280;4196;48.926;8.964;2023-03-18T07:47:34;98721.66;;;7.13;100.00
8318;BME280;4196;48.926;8.964;2023-03-18T07:50:21;98719.97;;;7.21;100.00
8318;BME280;4196;48.926;8.964;2023-03-18T07:53:08;98754.53;;;7.60;100.00
8318;BME280;4196;48.926;8.964;2023-03-18T07:55:54;98720.16;;;7.61;100.00
8318;BME280;4196;48.926;8.964;2023-03-18T07:58:40;98733.16;;;7.88;100.00
8318;BME280;4196;48.926;8.964;2023-03-18T08:01:27;98723.72;;;7.99;100.00
8318;BME280;4196;48.926;8.964;2023-03-18T08:04:14;98746.19;;;8.43;100.00
8318;BME280;4196;48.926;8.964;2023-03-18T08:07:00;98726.41;;;8.59;100.00
8318;BME280;4196;48.926;8.964;2023-03-18T08:09:48;98741.00;;;8.89;100.00
8318;BME280;4196;48.926;8.964;2023-03-18T08:12:36;98726.34;;;9.07;100.00
8318;BME280;4196;48.926;8.964;2023-03-18T08:15:38;98769.31;;;9.48;100.00
8318;BME280;4196;48.926;8.964;2023-03-18T08:18:24;98745.13;;;9.61;100.00
8318;BME280;4196;48.926;8.964;2023-03-18T08:21:11;98737.34;;;9.68;100.00
8318;BME280;4196;48.926;8.964;2023-03-18T08:23:57;98745.06;;;9.76;100.00
8318;BME280;4196;48.926;8.964;2023-03-18T08:26:44;98759.69;;;9.88;100.00
8318;BME280;4196;48.926;8.964;2023-03-18T08:29:30;98732.00;;;10.01;100.00
8318;BME280;4196;48.926;8.964;2023-03-18T08:32:17;98755.16;;;10.31;100.00
8318;BME280;4196;48.926;8.964;2023-03-18T08:35:05;98736.25;;;10.11;100.00
8318;BME280;4196;48.926;8.964;2023-03-18T08:37:51;98745.72;;;10.15;100.00
8318;BME280;4196;48.926;8.964;2023-03-18T08:40:39;98747.44;;;10.18;100.00
8318;BME280;4196;48.926;8.964;2023-03-18T08:43:26;98737.91;;;10.32;100.00
8318;BME280;4196;48.926;8.964;2023-03-18T08:46:13;98759.22;;;10.63;100.00
8318;BME280;4196;48.926;8.964;2023-03-18T08:49:00;98736.81;;;10.59;100.00
8318;BME280;4196;48.926;8.964;2023-03-18T08:51:47;98684.41;;;10.31;100.00
8318;BME280;4196;48.926;8.964;2023-03-18T08:54:33;98705.53;;;10.86;100.00
8318;BME280;4196;48.926;8.964;2023-03-18T08:57:20;98759.53;;;11.28;100.00
8318;BME280;4196;48.926;8.964;2023-03-18T09:00:07;98759.06;;;11.69;98.21
8318;BME280;4196;48.926;8.964;2023-03-18T09:02:54;98728.00;;;11.65;96.29
8318;BME280;4196;48.926;8.964;2023-03-18T09:05:40;98756.22;;;11.91;96.59
8318;BME280;4196;48.926;8.964;2023-03-18T09:08:27;98761.81;;;12.26;91.22
8318;BME280;4196;48.926;8.964;2023-03-18T09:11:14;98730.81;;;12.14;88.50
8318;BME280;4196;48.926;8.964;2023-03-18T09:14:01;98730.66;;;12.26;88.94
8318;BME280;4196;48.926;8.964;2023-03-18T09:16:47;98762.75;;;12.76;85.78
8318;BME280;4196;48.926;8.964;2023-03-18T09:19:34;98728.13;;;12.76;77.63
8318;BME280;4196;48.926;8.964;2023-03-18T09:22:22;98751.91;;;13.04;74.25
8318;BME280;4196;48.926;8.964;2023-03-18T09:25:09;98744.63;;;13.26;73.19
8318;BME280;4196;48.926;8.964;2023-03-18T09:27:56;98730.38;;;13.44;70.65
8318;BME280;4196;48.926;8.964;2023-03-18T09:30:42;98738.88;;;13.53;67.59
8318;BME280;4196;48.926;8.964;2023-03-18T09:33:28;98693.22;;;13.39;66.61
8318;BME280;4196;48.926;8.964;2023-03-18T09:36:15;98717.91;;;13.63;65.26
8318;BME280;4196;48.926;8.964;2023-03-18T09:39:01;98698.69;;;13.68;64.44
8318;BME280;4196;48.926;8.964;2023-03-18T09:42:17;98732.97;;;13.89;57.55
8318;BME280;4196;48.926;8.964;2023-03-18T09:45:23;98724.69;;;14.10;58.82
8318;BME280;4196;48.926;8.964;2023-03-18T09:54:15;98721.25;;;14.45;53.96
8318;BME280;4196;48.926;8.964;2023-03-18T09:57:12;98710.56;;;14.59;51.75
8318;BME280;4196;48.926;8.964;2023-03-18T10:00:21;98711.28;;;14.64;50.68
8318;BME280;4196;48.926;8.964;2023-03-18T10:03:13;98688.47;;;14.72;50.97
8318;BME280;4196;48.926;8.964;2023-03-18T10:06:05;98709.19;;;14.79;50.07
8318;BME280;4196;48.926;8.964;2023-03-18T10:11:47;98708.56;;;15.03;48.20
8318;BME280;4196;48.926;8.964;2023-03-18T10:14:46;98708.22;;;15.15;48.57
8318;BME280;4196;48.926;8.964;2023-03-18T10:24:26;98706.06;;;15.62;46.27
8318;BME280;4196;48.926;8.964;2023-03-18T10:27:31;98707.44;;;15.76;45.00
8318;BME280;4196;48.926;8.964;2023-03-18T10:30:38;98700.03;;;15.60;44.08
8318;BME280;4196;48.926;8.964;2023-03-18T10:33:45;98679.31;;;15.85;44.80
8318;BME280;4196;48.926;8.964;2023-03-18T10:39:21;98694.03;;;16.16;47.50
8318;BME280;4196;48.926;8.964;2023-03-18T10:42:22;98685.59;;;16.36;45.44
8318;BME280;4196;48.926;8.964;2023-03-18T10:45:23;98691.31;;;16.47;44.96
8318;BME280;4196;48.926;8.964;2023-03-18T10:48:20;98685.88;;;16.27;45.32
8318;BME280;4196;48.926;8.964;2023-03-18T10:51:18;98680.56;;;16.56;44.27
8318;BME280;4196;48.926;8.964;2023-03-18T10:54:13;98679.94;;;16.48;44.13
8318;BME280;4196;48.926;8.964;2023-03-18T10:57:03;98666.03;;;16.48;44.70
8318;BME280;4196;48.926;8.964;2023-03-18T10:59:50;98682.06;;;16.37;45.50
8318;BME280;4196;48.926;8.964;2023-03-18T11:02:38;98665.81;;;16.27;46.78
8318;BME280;4196;48.926;8.964;2023-03-18T11:05:27;98675.81;;;16.67;45.93
8318;BME280;4196;48.926;8.964;2023-03-18T11:08:36;98658.28;;;16.45;45.84
8318;BME280;4196;48.926;8.964;2023-03-18T11:11:31;98670.91;;;16.32;45.90
8318;BME280;4196;48.926;8.964;2023-03-18T11:14:20;98669.59;;;16.45;44.85
8318;BME280;4196;48.926;8.964;2023-03-18T11:17:21;98659.94;;;16.21;45.81
8318;BME280;4196;48.926;8.964;2023-03-18T11:20:35;98663.66;;;16.40;45.46
8318;BME280;4196;48.926;8.964;2023-03-18T11:23:36;98653.13;;;16.43;46.12
8318;BME280;4196;48.926;8.964;2023-03-18T11:26:54;98650.28;;;16.49;45.66
8318;BME280;4196;48.926;8.964;2023-03-18T11:29:43;98653.31;;;16.63;45.68
8318;BME280;4196;48.926;8.964;2023-03-18T11:32:33;98653.31;;;16.37;46.26
8318;BME280;4196;48.926;8.964;2023-03-18T11:35:24;98647.31;;;16.35;47.47
8318;BME280;4196;48.926;8.964;2023-03-18T11:38:19;98641.06;;;16.39;46.01
8318;BME280;4196;48.926;8.964;2023-03-18T11:41:21;98605.19;;;16.17;45.47
8318;BME280;4196;48.926;8.964;2023-03-18T11:44:16;98639.97;;;16.46;45.25
8318;BME280;4196;48.926;8.964;2023-03-18T11:47:11;98636.84;;;16.35;45.79
8318;BME280;4196;48.926;8.964;2023-03-18T11:50:01;98641.41;;;16.28;46.45
8318;BME280;4196;48.926;8.964;2023-03-18T11:52:57;98614.22;;;16.34;46.02
8318;BME280;4196;48.926;8.964;2023-03-18T11:55:57;98619.53;;;16.31;45.37
8318;BME280;4196;48.926;8.964;2023-03-18T11:59:07;98631.38;;;16.67;46.33
8318;BME280;4196;48.926;8.964;2023-03-18T12:05:51;98635.69;;;16.95;45.19
8318;BME280;4196;48.926;8.964;2023-03-18T12:17:35;98607.72;;;17.44;43.26
8318;BME280;4196;48.926;8.964;2023-03-18T12:20:44;98611.94;;;17.25;44.38
8318;BME280;4196;48.926;8.964;2023-03-18T12:23:56;98605.13;;;17.21;45.04
8318;BME280;4196;48.926;8.964;2023-03-18T12:27:01;98604.22;;;17.22;44.13
8318;BME280;4196;48.926;8.964;2023-03-18T12:45:08;98571.44;;;17.80;41.93
8318;BME280;4196;48.926;8.964;2023-03-18T12:48:02;98582.03;;;18.21;41.80
8318;BME280;4196;48.926;8.964;2023-03-18T12:51:02;98591.28;;;18.50;40.87
8318;BME280;4196;48.926;8.964;2023-03-18T12:53:54;98582.75;;;18.66;40.76
8318;BME280;4196;48.926;8.964;2023-03-18T12:56:44;98575.81;;;18.85;39.84
8318;BME280;4196;48.926;8.964;2023-03-18T12:59:44;98584.41;;;18.89;39.45
8318;BME280;4196;48.926;8.964;2023-03-18T13:02:40;98576.03;;;19.01;39.89
8318;BME280;4196;48.926;8.964;2023-03-18T13:05:51;98559.66;;;19.15;39.97
8318;BME280;4196;48.926;8.964;2023-03-18T13:08:49;98568.38;;;18.76;39.45
8318;BME280;4196;48.926;8.964;2023-03-18T13:11:56;98562.44;;;18.50;39.60
8318;BME280;4196;48.926;8.964;2023-03-18T13:14:56;98571.31;;;18.68;40.62
8318;BME280;4196;48.926;8.964;2023-03-18T13:17:46;98538.88;;;18.71;39.74
8318;BME280;4196;48.926;8.964;2023-03-18T13:20:35;98549.19;;;18.33;40.32
8318;BME280;4196;48.926;8.964;2023-03-18T13:29:37;98553.41;;;18.57;39.24
8318;BME280;4196;48.926;8.964;2023-03-18T13:39:02;98552.09;;;18.88;38.94
8318;BME280;4196;48.926;8.964;2023-03-18T13:45:25;98561.78;;;18.66;39.33
8318;BME280;4196;48.926;8.964;2023-03-18T13:48:15;98548.19;;;18.78;38.69
8318;BME280;4196;48.926;8.964;2023-03-18T13:51:39;98561.13;;;19.01;39.23
8318;BME280;4196;48.926;8.964;2023-03-18T13:54:51;98552.97;;;19.08;38.53
8318;BME280;4196;48.926;8.964;2023-03-18T13:57:46;98529.81;;;18.78;38.18
8318;BME280;4196;48.926;8.964;2023-03-18T14:00:37;98544.31;;;19.05;38.06
8318;BME280;4196;48.926;8.964;2023-03-18T14:17:58;98503.13;;;18.68;41.39
8318;BME280;4196;48.926;8.964;2023-03-18T14:20:44;98526.63;;;18.70;41.59
8318;BME280;4196;48.926;8.964;2023-03-18T14:23:34;98556.94;;;18.97;41.97
8318;BME280;4196;48.926;8.964;2023-03-18T14:26:23;98548.81;;;18.83;41.64
8318;BME280;4196;48.926;8.964;2023-03-18T14:29:23;98557.19;;;18.91;41.37
8318;BME280;4196;48.926;8.964;2023-03-18T14:32:37;98526.72;;;18.68;42.07
8318;BME280;4196;48.926;8.964;2023-03-18T14:35:27;98550.72;;;18.79;41.76
8318;BME280;4196;48.926;8.964;2023-03-18T14:38:26;98548.03;;;18.81;42.32
8318;BME280;4196;48.926;8.964;2023-03-18T14:41:20;98552.22;;;18.85;41.74
8318;BME280;4196;48.926;8.964;2023-03-18T14:44:21;98537.47;;;18.62;41.49
8318;BME280;4196;48.926;8.964;2023-03-18T14:50:28;98542.38;;;18.70;42.43
8318;BME280;4196;48.926;8.964;2023-03-18T14:56:16;98545.88;;;18.50;43.19
8318;BME280;4196;48.926;8.964;2023-03-18T14:59:03;98536.69;;;18.40;42.83
8318;BME280;4196;48.926;8.964;2023-03-18T15:01:49;98535.03;;;18.37;43.42
8318;BME280;4196;48.926;8.964;2023-03-18T15:04:38;98515.19;;;18.31;42.57
8318;BME280;4196;48.926;8.964;2023-03-18T15:07:32;98536.78;;;18.38;43.93
8318;BME280;4196;48.926;8.964;2023-03-18T15:10:22;98536.66;;;18.41;43.32
8318;BME280;4196;48.926;8.964;2023-03-18T15:13:14;98511.22;;;18.23;43.88
8318;BME280;4196;48.926;8.964;2023-03-18T15:16:03;98527.84;;;18.22;42.91
8318;BME280;4196;48.926;8.964;2023-03-18T15:18:54;98534.41;;;18.12;43.02
8318;BME280;4196;48.926;8.964;2023-03-18T15:21:41;98539.03;;;18.05;43.14
8318;BME280;4196;48.926;8.964;2023-03-18T15:24:27;98509.84;;;17.92;43.60
8318;BME280;4196;48.926;8.964;2023-03-18T15:27:17;98533.19;;;17.98;44.08
8318;BME280;4196;48.926;8.964;2023-03-18T15:30:06;98540.75;;;17.84;44.53
8318;BME280;4196;48.926;8.964;2023-03-18T15:33:17;98543.44;;;17.82;43.97
8318;BME280;4196;48.926;8.964;2023-03-18T15:36:11;98541.09;;;17.75;45.03
8318;BME280;4196;48.926;8.964;2023-03-18T15:38:59;98540.59;;;17.43;43.93
8318;BME280;4196;48.926;8.964;2023-03-18T15:41:49;98524.66;;;17.27;44.06
8318;BME280;4196;48.926;8.964;2023-03-18T15:44:36;98508.50;;;17.16;45.07
8318;BME280;4196;48.926;8.964;2023-03-18T15:47:31;98533.53;;;17.45;44.17
8318;BME280;4196;48.926;8.964;2023-03-18T15:53:20;98542.81;;;17.54;44.52
8318;BME280;4196;48.926;8.964;2023-03-18T15:59:09;98535.25;;;17.46;44.25
8318;BME280;4196;48.926;8.964;2023-03-18T16:01:58;98518.41;;;17.30;44.85
8318;BME280;4196;48.926;8.964;2023-03-18T16:04:45;98518.81;;;17.19;45.11
8318;BME280;4196;48.926;8.964;2023-03-18T16:07:33;98527.41;;;17.23;44.91
8318;BME280;4196;48.926;8.964;2023-03-18T16:10:22;98550.75;;;17.29;45.26
8318;BME280;4196;48.926;8.964;2023-03-18T16:13:17;98500.91;;;16.86;45.38
8318;BME280;4196;48.926;8.964;2023-03-18T16:16:05;98535.84;;;17.07;45.06
8318;BME280;4196;48.926;8.964;2023-03-18T16:18:51;98496.66;;;16.82;45.71
8318;BME280;4196;48.926;8.964;2023-03-18T16:21:38;98535.75;;;16.87;45.36
8318;BME280;4196;48.926;8.964;2023-03-18T16:24:24;98548.94;;;16.84;46.05
8318;BME280;4196;48.926;8.964;2023-03-18T16:30:25;98554.50;;;16.73;46.80
8318;BME280;4196;48.926;8.964;2023-03-18T16:33:13;98521.56;;;16.44;46.85
8318;BME280;4196;48.926;8.964;2023-03-18T16:36:01;98505.75;;;16.22;47.33
8318;BME280;4196;48.926;8.964;2023-03-18T16:38:49;98557.31;;;16.42;47.32
8318;BME280;4196;48.926;8.964;2023-03-18T16:41:35;98539.22;;;16.11;47.88
8318;BME280;4196;48.926;8.964;2023-03-18T16:44:22;98567.78;;;16.17;47.84
8318;BME280;4196;48.926;8.964;2023-03-18T16:47:23;98564.50;;;16.10;48.74
8318;BME280;4196;48.926;8.964;2023-03-18T16:50:27;98550.34;;;15.91;48.23
8318;BME280;4196;48.926;8.964;2023-03-18T16:53:28;98571.53;;;16.08;48.66
8318;BME280;4196;48.926;8.964;2023-03-18T16:56:16;98581.47;;;15.97;49.22
8318;BME280;4196;48.926;8.964;2023-03-18T16:59:11;98580.94;;;15.86;49.23
8318;BME280;4196;48.926;8.964;2023-03-18T17:01:58;98586.66;;;15.70;49.77
8318;BME280;4196;48.926;8.964;2023-03-18T17:04:45;98573.44;;;15.47;51.16
8318;BME280;4196;48.926;8.964;2023-03-18T17:07:32;98589.25;;;15.41;51.55
8318;BME280;4196;48.926;8.964;2023-03-18T17:10:24;98583.22;;;15.09;54.33
8318;BME280;4196;48.926;8.964;2023-03-18T17:13:17;98559.63;;;14.52;60.63